createdAt,value
2023-01-28T00:00:55.463Z,3.68
2023-01-28T00:03:22.725Z,3.62
2023-01-28T00:05:49.757Z,3.48
2023-01-28T00:08:16.783Z,3.38
2023-01-28T00:10:43.686Z,3.23
2023-01-28T00:13:16.435Z,3.16
2023-01-28T00:15:43.381Z,3.08
2023-01-28T00:18:10.409Z,2.96
2023-01-28T00:20:37.416Z,2.86
2023-01-28T00:23:04.394Z,2.85
2023-01-28T00:25:31.318Z,3.02
2023-01-28T00:27:58.376Z,2.84
2023-01-28T00:30:25.349Z,2.92
2023-01-28T00:32:54.854Z,3.02
2023-01-28T00:35:21.869Z,2.84
2023-01-28T00:37:48.860Z,3.13
2023-01-28T00:40:16.080Z,2.93
2023-01-28T00:42:43.045Z,2.76
2023-01-28T00:45:10.424Z,2.70
2023-01-28T00:47:37.845Z,2.55
2023-01-28T00:50:05.552Z,2.71
2023-01-28T00:52:32.598Z,2.65
2023-01-28T00:54:59.654Z,2.41
2023-01-28T00:57:26.691Z,2.59
2023-01-28T00:59:53.614Z,2.54
2023-01-28T01:02:22.284Z,2.40
2023-01-28T01:05:01.480Z,2.47
2023-01-28T01:07:41.653Z,2.40
2023-01-28T01:10:15.916Z,2.64
2023-01-28T01:12:43.557Z,2.63
2023-01-28T01:15:11.351Z,2.85
2023-01-28T01:17:40.323Z,2.51
2023-01-28T01:20:13.085Z,2.37
2023-01-28T01:22:40.075Z,2.48
2023-01-28T01:25:07.477Z,2.21
2023-01-28T01:27:34.715Z,2.38
2023-01-28T01:30:01.803Z,2.46
2023-01-28T01:32:32.735Z,2.28
2023-01-28T01:34:59.770Z,2.01
2023-01-28T01:37:27.135Z,2.13
2023-01-28T01:39:54.248Z,2.13
2023-01-28T01:42:21.493Z,2.26
2023-01-28T01:44:54.191Z,2.40
2023-01-28T01:47:43.587Z,2.21
2023-01-28T01:50:45.812Z,1.97
2023-01-28T01:53:18.991Z,2.04
2023-01-28T01:55:50.204Z,2.09
2023-01-28T01:58:20.050Z,2.26
2023-01-28T02:00:47.720Z,2.18
2023-01-28T02:03:17.483Z,1.99
2023-01-28T02:05:44.498Z,1.69
2023-01-28T02:08:23.548Z,1.81
2023-01-28T02:10:59.327Z,1.79
2023-01-28T02:13:31.140Z,2.09
2023-01-28T02:16:03.053Z,1.72
2023-01-28T02:18:30.136Z,1.74
2023-01-28T02:21:15.787Z,1.50
2023-01-28T02:24:13.224Z,1.86
2023-01-28T02:27:12.317Z,1.85
2023-01-28T02:29:56.264Z,1.87
2023-01-28T02:32:36.938Z,2.09
2023-01-28T02:35:25.163Z,1.56
2023-01-28T02:38:09.685Z,1.32
2023-01-28T02:41:01.103Z,1.43
2023-01-28T02:43:37.860Z,1.38
2023-01-28T02:46:36.682Z,1.36
2023-01-28T02:49:08.338Z,1.40
2023-01-28T02:52:07.466Z,1.22
2023-01-28T02:54:54.556Z,1.04
2023-01-28T02:57:57.163Z,0.94
2023-01-28T03:01:01.898Z,0.71
2023-01-28T03:03:40.714Z,0.99
2023-01-28T03:06:12.888Z,0.86
2023-01-28T03:09:12.235Z,1.13
2023-01-28T03:12:06.180Z,1.16
2023-01-28T03:14:53.734Z,1.10
2023-01-28T03:18:11.497Z,0.65
2023-01-28T03:21:02.968Z,0.71
2023-01-28T03:23:57.877Z,0.64
2023-01-28T03:26:46.349Z,0.49
2023-01-28T03:29:34.044Z,0.57
2023-01-28T03:32:23.801Z,0.78
2023-01-28T03:35:10.662Z,1.46
2023-01-28T03:37:38.266Z,0.61
2023-01-28T03:40:14.211Z,0.68
2023-01-28T03:42:43.126Z,0.63
2023-01-28T03:45:22.809Z,1.10
2023-01-28T03:47:49.926Z,0.86
2023-01-28T03:50:17.115Z,0.81
2023-01-28T03:53:14.976Z,0.59
2023-01-28T03:55:50.234Z,0.48
2023-01-28T03:58:18.401Z,0.57
2023-01-28T04:00:46.324Z,0.32
2023-01-28T04:03:17.044Z,0.39
2023-01-28T04:06:06.412Z,0.45
2023-01-28T04:08:56.480Z,0.75
2023-01-28T04:12:02.264Z,0.59
2023-01-28T04:14:35.686Z,0.59
2023-01-28T04:17:10.884Z,0.41
2023-01-28T04:19:38.803Z,0.33
2023-01-28T04:22:10.261Z,0.32
2023-01-28T04:24:37.449Z,0.33
2023-01-28T04:27:04.993Z,0.24
2023-01-28T04:29:31.830Z,0.25
2023-01-28T04:32:11.833Z,0.42
2023-01-28T04:34:57.378Z,0.49
2023-01-28T04:37:47.539Z,0.53
2023-01-28T04:40:33.195Z,0.49
2023-01-28T04:43:10.031Z,0.55
2023-01-28T04:45:57.150Z,0.41
2023-01-28T04:48:36.769Z,0.64
2023-01-28T04:51:22.479Z,0.64
2023-01-28T04:54:15.361Z,0.47
2023-01-28T04:56:42.362Z,0.51
2023-01-28T04:59:09.986Z,0.32
2023-01-28T05:01:38.393Z,0.42
2023-01-28T05:04:06.232Z,0.34
2023-01-28T05:06:37.244Z,0.51
2023-01-28T05:09:30.376Z,0.61
2023-01-28T05:11:57.267Z,0.53
2023-01-28T05:14:24.335Z,0.36
2023-01-28T05:17:03.076Z,0.47
2023-01-28T05:19:30.460Z,0.50
2023-01-28T05:21:59.478Z,0.59
2023-01-28T05:24:36.651Z,0.56
2023-01-28T05:27:04.285Z,0.67
2023-01-28T05:29:33.030Z,0.58
2023-01-28T05:32:00.038Z,0.59
2023-01-28T05:34:27.031Z,0.51
2023-01-28T05:36:55.598Z,0.46
2023-01-28T05:39:31.526Z,0.53
2023-01-28T05:41:58.484Z,0.44
2023-01-28T05:44:25.703Z,0.41
2023-01-28T05:47:08.351Z,0.56
2023-01-28T05:49:50.727Z,0.69
2023-01-28T05:52:44.314Z,0.65
2023-01-28T05:55:22.836Z,0.87
2023-01-28T05:57:50.202Z,0.62
2023-01-28T06:00:21.069Z,0.54
2023-01-28T06:02:47.965Z,0.49
2023-01-28T06:05:15.975Z,0.47
2023-01-28T06:07:47.680Z,0.60
2023-01-28T06:10:18.151Z,0.52
2023-01-28T06:12:45.968Z,0.61
2023-01-28T06:15:31.993Z,0.63
2023-01-28T06:18:08.733Z,0.65
2023-01-28T06:20:36.228Z,0.45
2023-01-28T06:23:03.299Z,0.60
2023-01-28T06:25:30.284Z,0.89
2023-01-28T06:28:01.321Z,0.66
2023-01-28T06:30:28.212Z,0.80
2023-01-28T06:32:56.161Z,0.75
2023-01-28T06:35:23.709Z,0.69
2023-01-28T06:37:51.019Z,0.64
2023-01-28T06:40:18.350Z,0.77
2023-01-28T06:42:45.694Z,0.81
2023-01-28T06:45:12.550Z,0.61
2023-01-28T06:47:40.140Z,0.75
2023-01-28T06:50:07.675Z,0.80
2023-01-28T06:52:34.527Z,0.75
2023-01-28T06:55:01.795Z,0.72
2023-01-28T06:57:28.678Z,0.70
2023-01-28T06:59:55.603Z,0.78
2023-01-28T07:02:22.545Z,0.65
2023-01-28T07:04:49.416Z,0.76
2023-01-28T07:07:16.429Z,0.99
2023-01-28T07:09:43.833Z,1.10
2023-01-28T07:12:10.866Z,0.98
2023-01-28T07:14:37.753Z,1.04
2023-01-28T07:17:04.755Z,1.32
2023-01-28T07:19:31.985Z,1.32
2023-01-28T07:22:00.953Z,1.16
2023-01-28T07:24:27.969Z,1.19
2023-01-28T07:26:55.175Z,1.26
2023-01-28T07:29:22.378Z,1.15
2023-01-28T07:31:49.315Z,1.27
2023-01-28T07:34:16.306Z,2.27
2023-01-28T07:36:43.212Z,1.81
2023-01-28T07:39:10.067Z,2.67
2023-01-28T07:41:37.063Z,2.17
2023-01-28T07:44:07.358Z,2.18
2023-01-28T07:46:34.309Z,2.54
2023-01-28T07:49:01.454Z,2.92
2023-01-28T07:51:28.420Z,2.10
2023-01-28T07:53:55.312Z,1.66
2023-01-28T07:56:22.164Z,2.26
2023-01-28T07:58:51.980Z,2.43
2023-01-28T08:01:19.808Z,3.12
2023-01-28T08:03:46.725Z,2.06
2023-01-28T08:06:13.624Z,1.42
2023-01-28T08:08:40.542Z,2.42
2023-01-28T08:11:11.779Z,2.37
2023-01-28T08:13:38.671Z,2.68
2023-01-28T08:16:06.565Z,3.21
2023-01-28T08:18:33.701Z,3.16
2023-01-28T08:21:00.563Z,2.75
2023-01-28T08:23:27.891Z,3.38
2023-01-28T08:25:55.267Z,3.17
2023-01-28T08:28:22.395Z,3.77
2023-01-28T08:30:49.577Z,3.49
2023-01-28T08:33:17.961Z,3.07
2023-01-28T08:35:45.408Z,2.12
2023-01-28T08:38:15.397Z,2.42
2023-01-28T08:40:42.551Z,1.91
2023-01-28T08:43:09.776Z,1.83
2023-01-28T08:45:36.718Z,1.36
2023-01-28T08:48:05.696Z,1.48
2023-01-28T08:50:35.900Z,2.10
2023-01-28T08:53:10.039Z,1.46
2023-01-28T08:55:37.134Z,1.59
2023-01-28T08:58:11.144Z,1.24
2023-01-28T09:00:38.910Z,1.27
2023-01-28T09:03:06.775Z,1.23
2023-01-28T09:05:37.603Z,1.56
2023-01-28T09:08:06.979Z,1.30
2023-01-28T09:10:34.119Z,1.60
2023-01-28T09:13:08.867Z,2.09
2023-01-28T09:15:36.281Z,1.48
2023-01-28T09:18:03.669Z,1.44
2023-01-28T09:20:30.651Z,1.41
2023-01-28T09:22:58.902Z,1.51
2023-01-28T09:25:25.803Z,1.73
2023-01-28T09:27:52.794Z,2.01
2023-01-28T09:30:19.762Z,1.54
2023-01-28T09:32:50.614Z,1.43
2023-01-28T09:35:18.311Z,1.89
2023-01-28T09:37:46.355Z,1.81
2023-01-28T09:40:19.143Z,1.88
2023-01-28T09:42:48.629Z,1.29
2023-01-28T09:45:38.850Z,1.05
2023-01-28T09:48:11.135Z,0.90
2023-01-28T09:50:41.519Z,1.24
2023-01-28T09:53:30.741Z,1.00
2023-01-28T09:56:12.570Z,1.20
2023-01-28T09:58:39.642Z,1.21
2023-01-28T10:01:22.298Z,1.37
2023-01-28T10:04:07.598Z,1.02
2023-01-28T10:06:34.664Z,1.01
2023-01-28T10:09:43.181Z,1.13
2023-01-28T10:12:21.935Z,1.34
2023-01-28T10:15:17.225Z,1.31
2023-01-28T10:17:48.271Z,1.31
2023-01-28T10:20:31.148Z,0.73
2023-01-28T10:23:22.782Z,1.22
2023-01-28T10:25:49.708Z,2.15
2023-01-28T10:28:24.219Z,1.11
2023-01-28T10:30:52.014Z,1.53
2023-01-28T10:33:22.353Z,1.26
2023-01-28T10:35:49.766Z,1.24
2023-01-28T10:38:21.356Z,1.66
2023-01-28T10:40:48.349Z,1.53
2023-01-28T10:43:25.448Z,1.24
2023-01-28T10:46:21.297Z,1.47
2023-01-28T10:49:06.321Z,2.17
2023-01-28T10:51:36.580Z,1.61
2023-01-28T10:54:04.781Z,1.34
2023-01-28T10:56:35.726Z,1.05
2023-01-28T10:59:02.628Z,0.90
2023-01-28T11:01:45.544Z,1.21
2023-01-28T11:04:20.433Z,0.95
2023-01-28T11:06:59.333Z,1.03
2023-01-28T11:09:29.718Z,0.78
2023-01-28T11:11:57.786Z,0.79
2023-01-28T11:14:27.177Z,0.72
2023-01-28T11:16:58.189Z,0.91
2023-01-28T11:19:32.318Z,0.88
2023-01-28T11:21:59.691Z,0.96
2023-01-28T11:24:31.057Z,0.94
2023-01-28T11:27:01.794Z,0.69
2023-01-28T11:29:32.887Z,0.54
2023-01-28T11:32:01.080Z,0.67
2023-01-28T11:34:30.543Z,0.90
2023-01-28T11:37:12.965Z,0.92
2023-01-28T11:39:40.061Z,0.70
2023-01-28T11:42:20.984Z,0.63
2023-01-28T11:44:49.286Z,0.79
2023-01-28T11:47:19.035Z,0.72
2023-01-28T11:50:13.801Z,0.73
2023-01-28T11:53:06.835Z,0.69
2023-01-28T11:55:52.951Z,0.93
2023-01-28T11:58:19.821Z,0.53
2023-01-28T12:01:07.864Z,0.65
2023-01-28T12:03:53.072Z,0.71
2023-01-28T12:07:02.488Z,0.86
2023-01-28T12:09:52.042Z,0.90
2023-01-28T12:12:35.665Z,0.70
2023-01-28T12:15:08.523Z,0.61
2023-01-28T12:17:46.643Z,0.63
2023-01-28T12:20:42.656Z,0.67
2023-01-28T12:23:29.839Z,0.65
2023-01-28T12:26:18.182Z,0.61
2023-01-28T12:28:48.105Z,0.52
2023-01-28T12:31:33.436Z,0.56
2023-01-28T12:34:24.602Z,0.54
2023-01-28T12:37:00.905Z,0.53
2023-01-28T12:39:46.727Z,0.63
2023-01-28T12:42:32.553Z,0.97
2023-01-28T12:45:45.559Z,0.65
2023-01-28T12:48:21.991Z,0.83
2023-01-28T12:50:59.019Z,0.73
2023-01-28T12:53:57.020Z,0.95
2023-01-28T12:56:42.531Z,1.23
2023-01-28T12:59:27.562Z,0.96
2023-01-28T13:02:04.652Z,0.51
2023-01-28T13:04:40.057Z,0.74
2023-01-28T13:07:09.751Z,1.24
2023-01-28T13:09:39.453Z,1.22
2023-01-28T13:12:07.276Z,0.88
2023-01-28T13:14:34.929Z,1.18
2023-01-28T13:17:29.066Z,0.99
2023-01-28T13:19:57.006Z,0.67
2023-01-28T13:22:35.333Z,0.96
2023-01-28T13:25:27.280Z,1.07
2023-01-28T13:27:59.568Z,0.98
2023-01-28T13:30:30.633Z,1.23
2023-01-28T13:32:58.715Z,1.42
2023-01-28T13:35:40.958Z,1.34
2023-01-28T13:38:26.284Z,0.85
2023-01-28T13:41:01.880Z,1.04
2023-01-28T13:43:34.936Z,1.19
2023-01-28T13:46:05.466Z,0.96
2023-01-28T13:48:41.160Z,1.04
2023-01-28T13:51:24.327Z,1.23
2023-01-28T13:53:56.965Z,1.12
2023-01-28T13:56:31.295Z,0.93
2023-01-28T13:59:07.115Z,1.14
2023-01-28T14:01:58.700Z,0.87
2023-01-28T14:04:25.522Z,1.15
2023-01-28T14:07:19.458Z,0.88
2023-01-28T14:10:08.691Z,1.10
2023-01-28T14:13:09.323Z,1.08
2023-01-28T14:15:57.883Z,0.74
2023-01-28T14:18:32.847Z,0.78
2023-01-28T14:21:03.280Z,0.59
2023-01-28T14:23:32.487Z,0.86
2023-01-28T14:26:14.352Z,1.00
2023-01-28T14:28:47.527Z,0.57
2023-01-28T14:31:23.118Z,0.77
2023-01-28T14:33:50.498Z,0.91
2023-01-28T14:36:17.351Z,0.91
2023-01-28T14:38:46.662Z,0.77
2023-01-28T14:41:26.826Z,0.53
2023-01-28T14:43:56.129Z,0.51
2023-01-28T14:46:45.431Z,0.95
2023-01-28T14:49:44.002Z,1.20
2023-01-28T14:52:19.906Z,0.71
2023-01-28T14:55:09.227Z,0.68
2023-01-28T14:57:52.737Z,0.47
2023-01-28T15:00:25.764Z,0.64
2023-01-28T15:02:52.927Z,0.59
2023-01-28T15:05:24.819Z,0.76
2023-01-28T15:07:51.865Z,0.45
2023-01-28T15:10:26.988Z,0.49
2023-01-28T15:12:59.439Z,0.62
2023-01-28T15:15:31.846Z,0.69
2023-01-28T15:18:07.458Z,0.48
2023-01-28T15:20:34.886Z,0.53
2023-01-28T15:23:03.708Z,0.74
2023-01-28T15:25:30.713Z,0.58
2023-01-28T15:28:00.892Z,0.75
2023-01-28T15:30:30.840Z,0.67
2023-01-28T15:33:01.384Z,0.64
2023-01-28T15:35:29.109Z,0.62
2023-01-28T15:37:56.510Z,0.59
2023-01-28T15:40:26.040Z,0.57
2023-01-28T15:42:55.863Z,0.75
2023-01-28T15:45:26.081Z,0.57
2023-01-28T15:48:03.033Z,0.71
2023-01-28T15:50:30.273Z,0.70
2023-01-28T15:52:57.534Z,0.78
2023-01-28T15:55:45.192Z,0.70
2023-01-28T15:58:12.117Z,0.95
2023-01-28T16:00:39.661Z,1.18
2023-01-28T16:03:09.990Z,1.10
2023-01-28T16:05:40.561Z,0.60
2023-01-28T16:08:25.419Z,0.76
2023-01-28T16:10:54.292Z,0.77
2023-01-28T16:13:25.165Z,0.66
2023-01-28T16:15:54.536Z,0.85
2023-01-28T16:18:44.199Z,0.95
2023-01-28T16:21:25.381Z,1.06
2023-01-28T16:24:08.135Z,0.58
2023-01-28T16:26:36.217Z,0.65
2023-01-28T16:29:15.393Z,0.87
2023-01-28T16:31:42.586Z,0.60
2023-01-28T16:34:11.045Z,0.54
2023-01-28T16:36:37.888Z,0.83
2023-01-28T16:39:05.035Z,0.76
2023-01-28T16:41:35.813Z,0.69
2023-01-28T16:44:05.952Z,0.95
2023-01-28T16:46:33.705Z,0.73
2023-01-28T16:49:00.740Z,0.68
2023-01-28T16:51:28.063Z,0.82
2023-01-28T16:53:55.151Z,0.69
2023-01-28T16:56:44.107Z,1.06
2023-01-28T16:59:12.325Z,1.10
2023-01-28T17:01:39.693Z,1.04
2023-01-28T17:04:11.958Z,0.90
2023-01-28T17:06:43.495Z,0.86
2023-01-28T17:09:12.168Z,0.79
2023-01-28T17:11:42.346Z,0.80
2023-01-28T17:14:10.678Z,0.92
2023-01-28T17:16:38.457Z,0.99
2023-01-28T17:19:05.623Z,0.81
2023-01-28T17:21:32.569Z,0.83
2023-01-28T17:24:01.030Z,0.58
2023-01-28T17:26:29.355Z,0.50
2023-01-28T17:28:56.699Z,0.61
2023-01-28T17:31:24.225Z,0.71
2023-01-28T17:33:57.468Z,0.78
2023-01-28T17:36:25.878Z,0.75
2023-01-28T17:38:53.564Z,0.82
2023-01-28T17:41:21.220Z,0.92
2023-01-28T17:43:52.286Z,1.17
2023-01-28T17:46:20.506Z,1.03
2023-01-28T17:48:48.309Z,0.80
2023-01-28T17:51:19.144Z,0.81
2023-01-28T17:53:51.388Z,0.89
2023-01-28T17:56:26.395Z,0.94
2023-01-28T17:58:58.767Z,0.91
2023-01-28T18:01:27.108Z,0.70
2023-01-28T18:03:55.197Z,0.69
2023-01-28T18:06:22.628Z,0.87
2023-01-28T18:08:49.508Z,0.75
2023-01-28T18:11:18.454Z,0.69
2023-01-28T18:13:45.727Z,0.97
2023-01-28T18:16:16.325Z,0.78
2023-01-28T18:18:43.927Z,0.64
2023-01-28T18:21:42.854Z,0.83
2023-01-28T18:24:17.845Z,0.83
2023-01-28T18:26:44.824Z,1.12
2023-01-28T18:29:16.885Z,0.90
2023-01-28T18:31:44.165Z,1.01
2023-01-28T18:34:11.389Z,0.87
2023-01-28T18:36:38.324Z,0.83
2023-01-28T18:39:05.529Z,1.19
2023-01-28T18:41:32.455Z,0.91
2023-01-28T18:43:59.319Z,0.89
2023-01-28T18:46:26.244Z,0.94
2023-01-28T18:48:53.186Z,0.74
2023-01-28T18:51:30.134Z,0.95
2023-01-28T18:54:03.284Z,0.93
2023-01-28T18:56:31.219Z,0.99
2023-01-28T18:59:03.647Z,0.96
2023-01-28T19:01:32.056Z,0.92
2023-01-28T19:04:00.175Z,0.86
2023-01-28T19:06:29.000Z,0.92
2023-01-28T19:08:58.007Z,1.03
2023-01-28T19:11:26.813Z,0.93
2023-01-28T19:13:53.998Z,0.93
2023-01-28T19:16:21.919Z,0.80
2023-01-28T19:19:00.095Z,0.80
2023-01-28T19:21:30.911Z,0.72
2023-01-28T19:24:06.621Z,0.84
2023-01-28T19:26:33.876Z,0.57
2023-01-28T19:29:01.745Z,0.86
2023-01-28T19:31:29.231Z,0.72
2023-01-28T19:33:59.143Z,0.67
2023-01-28T19:36:28.062Z,0.60
2023-01-28T19:39:03.775Z,0.47
2023-01-28T19:41:31.155Z,0.36
2023-01-28T19:43:58.840Z,0.45
2023-01-28T19:46:26.421Z,0.57
2023-01-28T19:48:53.966Z,0.62
2023-01-28T19:51:21.654Z,0.77
2023-01-28T19:53:51.663Z,0.63
2023-01-28T19:56:21.164Z,0.63
2023-01-28T19:58:48.156Z,0.69
2023-01-28T20:01:21.563Z,0.65
2023-01-28T20:03:54.700Z,0.63
2023-01-28T20:06:23.969Z,0.52
2023-01-28T20:09:00.627Z,0.46
2023-01-28T20:11:27.571Z,0.64
2023-01-28T20:13:55.773Z,0.69
2023-01-28T20:16:25.455Z,0.62
2023-01-28T20:18:58.190Z,0.68
2023-01-28T20:21:26.478Z,0.56
2023-01-28T20:23:54.727Z,0.51
2023-01-28T20:26:25.147Z,0.46
2023-01-28T20:28:52.053Z,0.58
2023-01-28T20:31:20.581Z,0.71
2023-01-28T20:33:48.148Z,0.61
2023-01-28T20:36:15.351Z,0.44
2023-01-28T20:38:46.666Z,0.56
2023-01-28T20:41:22.981Z,0.57
2023-01-28T20:43:51.348Z,0.53
2023-01-28T20:46:22.468Z,0.53
2023-01-28T20:48:50.249Z,0.37
2023-01-28T20:51:19.668Z,0.52
2023-01-28T20:53:48.042Z,0.67
2023-01-28T20:56:17.738Z,0.71
2023-01-28T20:58:44.941Z,0.59
2023-01-28T21:01:26.961Z,0.90
2023-01-28T21:03:54.238Z,0.59
2023-01-28T21:06:21.130Z,0.59
2023-01-28T21:08:48.070Z,0.64
2023-01-28T21:11:15.005Z,0.65
2023-01-28T21:13:41.934Z,0.79
2023-01-28T21:16:08.937Z,0.72
2023-01-28T21:18:35.856Z,0.62
2023-01-28T21:21:13.683Z,0.92
2023-01-28T21:23:41.619Z,0.64
2023-01-28T21:26:08.965Z,0.89
2023-01-28T21:28:36.045Z,0.64
2023-01-28T21:31:11.478Z,0.65
2023-01-28T21:33:38.600Z,0.78
2023-01-28T21:36:13.711Z,0.69
2023-01-28T21:38:41.552Z,0.83
2023-01-28T21:41:09.687Z,0.69
2023-01-28T21:43:37.312Z,0.71
2023-01-28T21:46:04.824Z,0.82
2023-01-28T21:48:31.857Z,0.74
2023-01-28T21:51:26.555Z,0.81
2023-01-28T21:53:54.313Z,0.63
2023-01-28T21:56:21.393Z,0.49
2023-01-28T21:59:07.043Z,0.58
2023-01-28T22:01:34.619Z,0.76
2023-01-28T22:04:01.583Z,0.80
2023-01-28T22:06:28.449Z,0.80
2023-01-28T22:08:55.567Z,0.59
2023-01-28T22:11:22.855Z,0.41
2023-01-28T22:13:49.734Z,0.32
2023-01-28T22:16:17.277Z,0.32
2023-01-28T22:18:44.324Z,0.41
2023-01-28T22:21:12.351Z,0.44
2023-01-28T22:23:39.616Z,0.40
2023-01-28T22:26:06.631Z,0.39
2023-01-28T22:28:33.537Z,0.46
2023-01-28T22:31:12.690Z,0.66
2023-01-28T22:33:40.686Z,0.54
2023-01-28T22:36:10.014Z,0.49
2023-01-28T22:38:39.201Z,0.48
2023-01-28T22:41:08.928Z,0.49
2023-01-28T22:43:36.140Z,0.53
2023-01-28T22:46:04.335Z,0.61
2023-01-28T22:48:31.309Z,0.41
2023-01-28T22:51:03.183Z,0.44
2023-01-28T22:53:30.782Z,0.55
2023-01-28T22:55:57.735Z,0.59
2023-01-28T22:58:24.874Z,0.45
2023-01-28T23:00:52.548Z,0.42
2023-01-28T23:03:19.593Z,0.31
2023-01-28T23:05:46.530Z,0.24
2023-01-28T23:08:13.417Z,0.25
2023-01-28T23:10:47.221Z,0.34
2023-01-28T23:13:17.360Z,0.38
2023-01-28T23:16:04.056Z,0.30
2023-01-28T23:19:09.867Z,0.47
2023-01-28T23:21:55.659Z,0.37
2023-01-28T23:24:22.695Z,0.52
2023-01-28T23:26:54.761Z,0.36
2023-01-28T23:29:26.643Z,0.32
2023-01-28T23:31:56.459Z,0.51
2023-01-28T23:34:23.656Z,0.33
2023-01-28T23:36:50.728Z,0.40
2023-01-28T23:39:17.628Z,0.30
2023-01-28T23:41:44.493Z,0.43
2023-01-28T23:44:11.437Z,0.37
2023-01-28T23:46:40.143Z,0.69
2023-01-28T23:49:09.789Z,0.41
2023-01-28T23:51:36.705Z,0.46
2023-01-28T23:54:03.541Z,0.72
2023-01-28T23:56:30.507Z,0.65
2023-01-28T23:58:57.355Z,0.48
